createdAt,value
2022-09-11T00:01:33.545Z,95992.19
2022-09-11T00:04:03.416Z,95971.34
2022-09-11T00:06:32.195Z,95972.97
2022-09-11T00:09:02.368Z,95982.84
2022-09-11T00:11:33.051Z,95992.88
2022-09-11T00:14:02.787Z,95988.66
2022-09-11T00:16:33.996Z,95990.69
2022-09-11T00:19:03.898Z,95983.72
2022-09-11T00:21:32.599Z,95941.06
2022-09-11T00:24:01.192Z,95980.13
2022-09-11T00:26:29.455Z,95946.22
2022-09-11T00:28:57.549Z,95984.09
2022-09-11T00:31:30.305Z,95978.97
2022-09-11T00:33:58.621Z,95976.81
2022-09-11T00:36:29.067Z,95994.44
2022-09-11T00:38:58.109Z,95993.25
2022-09-11T00:41:27.822Z,95981.34
2022-09-11T00:44:02.360Z,96000.19
2022-09-11T00:46:41.662Z,95955.78
2022-09-11T00:49:22.693Z,95952.38
2022-09-11T00:51:54.632Z,95989.06
2022-09-11T00:54:26.558Z,95988.53
2022-09-11T00:56:55.468Z,95990.00
2022-09-11T00:59:25.474Z,96003.16
2022-09-11T01:01:56.206Z,95984.97
2022-09-11T01:04:25.079Z,95981.34
2022-09-11T01:06:54.337Z,95981.03
2022-09-11T01:09:22.749Z,95980.38
2022-09-11T01:11:55.809Z,95985.22
2022-09-11T01:14:34.444Z,95974.41
2022-09-11T01:17:12.714Z,95976.31
2022-09-11T01:20:00.259Z,95945.09
2022-09-11T01:22:46.920Z,95972.53
2022-09-11T01:25:27.524Z,95974.16
2022-09-11T01:27:57.803Z,95980.56
2022-09-11T01:30:30.257Z,95982.16
2022-09-11T01:33:06.703Z,95975.78
2022-09-11T01:35:43.070Z,95973.75
2022-09-11T01:38:16.171Z,95957.00
2022-09-11T01:40:49.542Z,95938.28
2022-09-11T01:43:22.307Z,95970.34
2022-09-11T01:45:51.657Z,95961.81
2022-09-11T01:48:23.363Z,95970.66
2022-09-11T01:50:53.345Z,95966.16
2022-09-11T01:53:24.461Z,95973.59
2022-09-11T01:55:57.318Z,95950.72
2022-09-11T01:58:29.602Z,95952.19
2022-09-11T02:01:01.310Z,95963.50
2022-09-11T02:03:33.202Z,95954.84
2022-09-11T02:06:04.454Z,95951.00
2022-09-11T02:08:39.616Z,95925.91
2022-09-11T02:11:10.608Z,95949.78
2022-09-11T02:13:48.344Z,95951.63
2022-09-11T02:16:22.852Z,95956.78
2022-09-11T02:18:59.735Z,95950.69
2022-09-11T02:21:28.022Z,95963.13
2022-09-11T02:23:56.636Z,95955.97
2022-09-11T02:26:26.129Z,95949.72
2022-09-11T02:28:56.017Z,95942.00
2022-09-11T02:31:24.459Z,95944.13
2022-09-11T02:33:52.756Z,95906.56
2022-09-11T02:36:36.272Z,95935.72
2022-09-11T02:39:17.784Z,95938.16
2022-09-11T02:41:56.844Z,95936.25
2022-09-11T02:44:31.868Z,95942.22
2022-09-11T02:47:11.933Z,95948.31
2022-09-11T02:49:47.956Z,95943.03
2022-09-11T02:52:23.191Z,95944.06
2022-09-11T02:54:56.967Z,95940.03
2022-09-11T02:57:30.143Z,95943.69
2022-09-11T03:00:01.478Z,95953.13
2022-09-11T03:02:30.830Z,95946.28
2022-09-11T03:04:59.195Z,95950.91
2022-09-11T03:07:27.415Z,95949.06
2022-09-11T03:09:55.529Z,95926.19
2022-09-11T03:12:23.649Z,95911.72
2022-09-11T03:14:52.025Z,95943.84
2022-09-11T03:17:21.950Z,95942.50
2022-09-11T03:19:50.121Z,95944.13
2022-09-11T03:22:18.241Z,95902.88
2022-09-11T03:24:46.414Z,95909.50
2022-09-11T03:27:14.511Z,95940.69
2022-09-11T03:29:42.871Z,95948.19
2022-09-11T03:32:11.062Z,95947.38
2022-09-11T03:34:40.455Z,95926.81
2022-09-11T03:37:08.562Z,95946.28
2022-09-11T03:39:36.683Z,95941.25
2022-09-11T03:42:05.033Z,95938.00
2022-09-11T03:44:33.146Z,95948.44
2022-09-11T03:47:01.257Z,95943.53
2022-09-11T03:49:29.434Z,95944.50
2022-09-11T03:51:59.003Z,95949.00
2022-09-11T03:54:27.761Z,95949.00
2022-09-11T03:56:55.997Z,95929.34
2022-09-11T03:59:24.119Z,95921.28
2022-09-11T04:01:52.919Z,95913.69
2022-09-11T04:04:21.295Z,95948.06
2022-09-11T04:06:49.432Z,95927.84
2022-09-11T04:09:19.054Z,95906.41
2022-09-11T04:11:47.157Z,95924.06
2022-09-11T04:14:16.076Z,95934.75
2022-09-11T04:16:44.257Z,95930.56
2022-09-11T04:19:13.441Z,95911.56
2022-09-11T04:21:42.401Z,95933.59
2022-09-11T04:24:11.336Z,95930.50
2022-09-11T04:26:40.917Z,95939.53
2022-09-11T04:29:09.034Z,95931.69
2022-09-11T04:31:38.461Z,95939.81
2022-09-11T04:34:06.987Z,95942.22
2022-09-11T04:36:35.109Z,95904.78
2022-09-11T04:39:03.291Z,95931.25
2022-09-11T04:41:31.495Z,95924.38
2022-09-11T04:44:05.227Z,95933.81
2022-09-11T04:46:34.454Z,95930.66
2022-09-11T04:49:03.046Z,95900.13
2022-09-11T04:51:32.376Z,95943.31
2022-09-11T04:54:01.296Z,95930.44
2022-09-11T04:56:32.518Z,95938.00
2022-09-11T04:59:03.486Z,95912.47
2022-09-11T05:01:33.673Z,95928.66
2022-09-11T05:04:01.908Z,95940.97
2022-09-11T05:06:31.706Z,95926.38
2022-09-11T05:09:03.642Z,95936.78
2022-09-11T05:11:32.504Z,95896.47
2022-09-11T05:14:02.245Z,95926.75
2022-09-11T05:16:31.719Z,95912.53
2022-09-11T05:19:00.196Z,95934.34
2022-09-11T05:21:29.373Z,95927.56
2022-09-11T05:23:58.849Z,95935.16
2022-09-11T05:26:28.930Z,95927.13
2022-09-11T05:29:04.054Z,95930.75
2022-09-11T05:31:35.012Z,95939.53
2022-09-11T05:34:10.951Z,95935.00
2022-09-11T05:36:59.031Z,95941.81
2022-09-11T05:39:43.943Z,95940.47
2022-09-11T05:42:40.244Z,95924.59
2022-09-11T05:45:22.488Z,95948.13
2022-09-11T05:47:55.821Z,95944.59
2022-09-11T05:50:24.544Z,95946.38
2022-09-11T05:52:53.901Z,95915.41
2022-09-11T05:55:22.780Z,95947.38
2022-09-11T05:57:54.989Z,95945.84
2022-09-11T06:00:23.512Z,95937.38
2022-09-11T06:02:56.439Z,95934.56
2022-09-11T06:05:26.633Z,95940.84
2022-09-11T06:07:55.801Z,95926.75
2022-09-11T06:10:24.101Z,95945.28
2022-09-11T06:12:52.399Z,95940.75
2022-09-11T06:15:45.202Z,95936.13
2022-09-11T06:18:10.222Z,95948.66
2022-09-11T06:20:38.471Z,95941.06
2022-09-11T06:23:09.263Z,95914.53
2022-09-11T06:25:37.957Z,95924.03
2022-09-11T06:28:06.165Z,95927.94
2022-09-11T06:30:40.881Z,95873.38
2022-09-11T06:33:11.604Z,95908.25
2022-09-11T06:35:39.974Z,95951.81
2022-09-11T06:38:08.696Z,95952.22
2022-09-11T06:40:38.364Z,95942.84
2022-09-11T06:43:06.497Z,95940.59
2022-09-11T06:45:34.857Z,95948.25
2022-09-11T06:48:04.443Z,95952.91
2022-09-11T06:50:40.988Z,95949.44
2022-09-11T06:53:09.508Z,95943.16
2022-09-11T06:55:37.863Z,95953.19
2022-09-11T06:58:06.725Z,95954.34
2022-09-11T07:00:35.092Z,95941.13
2022-09-11T07:03:03.358Z,95957.63
2022-09-11T07:05:33.928Z,95958.06
2022-09-11T07:08:03.985Z,95961.00
2022-09-11T07:10:34.953Z,95961.31
2022-09-11T07:13:03.674Z,95949.97
2022-09-11T07:15:32.174Z,95962.72
2022-09-11T07:18:01.992Z,95968.06
2022-09-11T07:20:31.549Z,95962.22
2022-09-11T07:23:01.670Z,95972.28
2022-09-11T07:25:29.977Z,95971.78
2022-09-11T07:27:58.388Z,95973.72
2022-09-11T07:30:27.251Z,95946.81
2022-09-11T07:32:55.830Z,95980.69
2022-09-11T07:35:24.047Z,95985.34
2022-09-11T07:37:53.883Z,95983.75
2022-09-11T07:40:23.819Z,95982.00
2022-09-11T07:42:52.597Z,95984.03
2022-09-11T07:45:22.822Z,95984.38
2022-09-11T07:47:51.463Z,95991.19
2022-09-11T07:50:20.095Z,95993.28
2022-09-11T07:52:50.814Z,95999.16
2022-09-11T07:55:19.465Z,95995.19
2022-09-11T07:57:54.969Z,95976.13
2022-09-11T08:00:26.322Z,95998.03
2022-09-11T08:02:57.093Z,96008.09
2022-09-11T08:05:26.782Z,95997.47
2022-09-11T08:07:55.464Z,95993.59
2022-09-11T08:10:27.559Z,96001.97
2022-09-11T08:13:00.079Z,96000.06
2022-09-11T08:15:28.968Z,96012.66
2022-09-11T08:17:57.231Z,96000.72
2022-09-11T08:20:25.406Z,95979.84
2022-09-11T08:22:53.634Z,96007.50
2022-09-11T08:25:21.917Z,96006.56
2022-09-11T08:27:50.048Z,96015.13
2022-09-11T08:30:19.770Z,96004.63
2022-09-11T08:32:48.412Z,95995.34
2022-09-11T08:35:17.175Z,95991.88
2022-09-11T08:37:46.196Z,96000.25
2022-09-11T08:40:15.404Z,96007.69
2022-09-11T08:42:52.767Z,96006.03
2022-09-11T08:45:37.259Z,95998.59
2022-09-11T08:48:07.247Z,95980.22
2022-09-11T08:50:40.333Z,96003.69
2022-09-11T08:53:15.538Z,96013.91
2022-09-11T08:55:47.651Z,96014.91
2022-09-11T08:58:22.408Z,96012.28
2022-09-11T09:00:57.812Z,96005.00
2022-09-11T09:03:45.954Z,96015.97
2022-09-11T09:06:46.328Z,96017.22
2022-09-11T09:09:22.575Z,96006.81
2022-09-11T09:11:59.205Z,95987.31
2022-09-11T09:14:56.030Z,96019.31
2022-09-11T09:17:32.131Z,96015.28
2022-09-11T09:20:07.542Z,96025.50
2022-09-11T09:22:42.064Z,96020.50
2022-09-11T09:25:15.087Z,96002.69
2022-09-11T09:27:49.689Z,96015.31
2022-09-11T09:30:22.551Z,96010.47
2022-09-11T09:35:56.730Z,96010.09
2022-09-11T09:38:30.442Z,96019.50
2022-09-11T09:41:13.563Z,96016.56
2022-09-11T09:43:51.779Z,96017.06
2022-09-11T09:46:27.989Z,96013.50
2022-09-11T09:49:04.436Z,96008.50
2022-09-11T09:51:36.976Z,96003.31
2022-09-11T09:54:06.933Z,96000.03
2022-09-11T09:56:37.846Z,96005.47
2022-09-11T09:59:19.368Z,96003.44
2022-09-11T10:01:50.115Z,96004.78
2022-09-11T10:04:23.648Z,96002.19
2022-09-11T10:06:54.507Z,96004.44
2022-09-11T10:09:25.634Z,96005.97
2022-09-11T10:11:56.484Z,96005.63
2022-09-11T10:14:49.685Z,95994.66
2022-09-11T10:17:21.761Z,95996.81
2022-09-11T10:19:52.934Z,96014.13
2022-09-11T10:22:31.726Z,95998.03
2022-09-11T10:25:11.846Z,95989.88
2022-09-11T10:27:52.116Z,95996.41
2022-09-11T10:30:31.876Z,95983.63
2022-09-11T10:33:03.476Z,95992.78
2022-09-11T10:35:35.942Z,95990.78
2022-09-11T10:38:17.977Z,95985.69
2022-09-11T10:40:58.321Z,95974.53
2022-09-11T10:43:29.841Z,96006.09
2022-09-11T10:46:06.290Z,96001.28
2022-09-11T10:48:34.527Z,95989.63
2022-09-11T10:51:12.541Z,95999.78
2022-09-11T10:53:49.661Z,96008.25
2022-09-11T10:56:18.279Z,95998.94
2022-09-11T10:58:52.258Z,96009.56
2022-09-11T11:01:26.193Z,95979.84
2022-09-11T11:03:55.654Z,95969.28
2022-09-11T11:06:40.633Z,96002.25
2022-09-11T11:09:31.891Z,96009.72
2022-09-11T11:12:17.299Z,96006.38
2022-09-11T11:19:15.335Z,96001.47
2022-09-11T11:21:55.035Z,95981.88
2022-09-11T11:24:35.362Z,96020.28
2022-09-11T11:27:19.302Z,96013.50
2022-09-11T11:30:00.679Z,96027.59
2022-09-11T11:32:44.949Z,96027.63
2022-09-11T11:35:32.140Z,96028.28
2022-09-11T11:38:05.733Z,96025.84
2022-09-11T11:40:38.333Z,96014.34
2022-09-11T11:43:08.896Z,95988.72
2022-09-11T11:45:40.647Z,96020.53
2022-09-11T11:48:14.927Z,96019.91
2022-09-11T11:50:44.817Z,96011.00
2022-09-11T11:53:19.948Z,96013.78
2022-09-11T11:55:55.978Z,96013.78
2022-09-11T11:58:34.666Z,96017.13
2022-09-11T12:01:08.229Z,96015.28
2022-09-11T12:03:41.394Z,95993.06
2022-09-11T12:06:11.654Z,96020.13
2022-09-11T12:08:46.197Z,96023.91
2022-09-11T12:11:16.577Z,96030.09
2022-09-11T12:13:47.446Z,96025.78
2022-09-11T12:16:20.527Z,96027.75
2022-09-11T12:19:08.623Z,96031.00
2022-09-11T12:21:43.689Z,96032.13
2022-09-11T12:24:21.444Z,96036.00
2022-09-11T12:27:28.863Z,96035.00
2022-09-11T12:29:58.705Z,96045.13
2022-09-11T12:32:51.422Z,96044.00
2022-09-11T12:35:34.969Z,96037.16
2022-09-11T12:38:13.234Z,96035.81
2022-09-11T12:40:58.964Z,96036.53
2022-09-11T12:44:03.249Z,96031.97
2022-09-11T12:47:36.295Z,96040.06
2022-09-11T12:50:34.036Z,96039.44
2022-09-11T12:53:05.219Z,96040.63
2022-09-11T12:55:39.732Z,96043.56
2022-09-11T12:58:25.193Z,96041.16
2022-09-11T13:01:07.622Z,96002.75
2022-09-11T13:03:50.376Z,96021.97
2022-09-11T13:06:25.076Z,96013.50
2022-09-11T13:08:55.861Z,96034.47
2022-09-11T13:11:39.049Z,96033.94
2022-09-11T13:14:49.187Z,96027.31
2022-09-11T13:17:26.346Z,96020.53
2022-09-11T13:19:58.536Z,95996.94
2022-09-11T13:22:27.867Z,96019.91
2022-09-11T13:25:08.246Z,96008.09
2022-09-11T13:27:39.964Z,96008.91
2022-09-11T13:30:12.139Z,96013.19
2022-09-11T13:32:42.897Z,96012.59
2022-09-11T13:35:16.902Z,96002.16
2022-09-11T13:37:49.974Z,96012.53
2022-09-11T13:40:28.662Z,96012.81
2022-09-11T13:42:57.645Z,96019.72
2022-09-11T13:45:28.604Z,96013.81
2022-09-11T13:47:58.574Z,96011.53
2022-09-11T13:50:27.656Z,96006.19
2022-09-11T13:52:57.542Z,95989.81
2022-09-11T13:55:32.649Z,96008.66
2022-09-11T13:58:02.074Z,95993.34
2022-09-11T14:00:45.964Z,95998.88
2022-09-11T14:03:20.519Z,96014.09
2022-09-11T14:05:55.419Z,96012.81
2022-09-11T14:08:29.972Z,96006.03
2022-09-11T14:11:10.928Z,96020.59
2022-09-11T14:13:47.712Z,96024.84
2022-09-11T14:16:26.664Z,96027.78
2022-09-11T14:18:57.454Z,96021.97
2022-09-11T14:21:37.174Z,96033.56
2022-09-11T14:24:26.488Z,96032.69
2022-09-11T14:26:58.283Z,96028.59
2022-09-11T14:29:28.170Z,96015.84
2022-09-11T14:32:28.068Z,96022.97
2022-09-11T14:35:00.701Z,95985.72
2022-09-11T14:37:32.788Z,96020.41
2022-09-11T14:40:07.999Z,96023.47
2022-09-11T14:42:38.510Z,96038.56
2022-09-11T14:45:10.938Z,96031.75
2022-09-11T14:47:40.632Z,96026.22
2022-09-11T14:50:13.429Z,96039.28
2022-09-11T14:52:42.290Z,96026.72
2022-09-11T14:55:15.880Z,96020.16
2022-09-11T14:57:46.640Z,96018.47
2022-09-11T15:00:20.331Z,96022.41
2022-09-11T15:02:50.354Z,96023.69
2022-09-11T15:05:23.108Z,96025.19
2022-09-11T15:07:55.636Z,96029.09
2022-09-11T15:10:24.262Z,96033.81
2022-09-11T15:12:53.197Z,96037.06
2022-09-11T15:15:21.547Z,96034.16
2022-09-11T15:17:51.003Z,96039.84
2022-09-11T15:20:21.160Z,96039.22
2022-09-11T15:22:53.347Z,96036.50
2022-09-11T15:25:40.858Z,96013.81
2022-09-11T15:28:12.366Z,96046.06
2022-09-11T15:30:47.622Z,96045.59
2022-09-11T15:33:18.654Z,96042.66
2022-09-11T15:35:54.236Z,96041.88
2022-09-11T15:38:24.405Z,96048.41
2022-09-11T15:40:56.903Z,96054.28
2022-09-11T15:43:36.939Z,96061.22
2022-09-11T15:46:11.615Z,96067.53
2022-09-11T15:48:42.478Z,96034.16
2022-09-11T15:51:15.526Z,96064.28
2022-09-11T15:53:45.646Z,96072.50
2022-09-11T15:56:16.595Z,96062.16
2022-09-11T15:58:47.101Z,96074.38
2022-09-11T16:01:21.037Z,96066.06
2022-09-11T16:03:54.079Z,95990.13
2022-09-11T16:06:25.403Z,96029.66
2022-09-11T16:08:58.919Z,96066.72
2022-09-11T16:11:29.547Z,96064.06
2022-09-11T16:13:59.019Z,96062.41
2022-09-11T16:16:28.862Z,96058.75
2022-09-11T16:19:02.007Z,96065.97
